createdAt,value
2023-03-30T00:00:59.088Z,9.40
2023-03-30T00:02:03.531Z,10.30
2023-03-30T00:03:06.219Z,8.57
2023-03-30T00:04:11.418Z,10.20
2023-03-30T00:05:14.439Z,9.57
2023-03-30T00:06:24.423Z,9.27
2023-03-30T00:07:27.554Z,9.95
2023-03-30T00:08:30.221Z,9.80
2023-03-30T00:09:33.246Z,9.85
2023-03-30T00:10:38.659Z,9.15
2023-03-30T00:11:41.265Z,9.27
2023-03-30T00:12:45.173Z,8.57
2023-03-30T00:13:47.685Z,9.52
2023-03-30T00:14:51.111Z,9.55
2023-03-30T00:15:53.708Z,8.75
2023-03-30T00:16:57.186Z,9.10
2023-03-30T00:17:59.932Z,8.68
2023-03-30T00:19:02.462Z,8.40
2023-03-30T00:20:09.346Z,8.88
2023-03-30T00:21:12.465Z,8.52
2023-03-30T00:22:15.046Z,7.75
2023-03-30T00:23:18.446Z,8.50
2023-03-30T00:24:21.072Z,7.97
2023-03-30T00:25:23.652Z,8.95
2023-03-30T00:26:27.154Z,8.48
2023-03-30T00:27:29.717Z,7.68
2023-03-30T00:28:32.543Z,8.43
2023-03-30T00:29:35.227Z,9.40
2023-03-30T00:30:37.897Z,7.93
2023-03-30T00:31:41.067Z,9.30
2023-03-30T00:32:44.637Z,9.02
2023-03-30T00:33:47.858Z,8.60
2023-03-30T00:34:50.581Z,7.78
2023-03-30T00:35:54.199Z,8.23
2023-03-30T00:36:57.636Z,8.43
2023-03-30T00:38:01.771Z,7.90
2023-03-30T00:39:06.795Z,8.32
2023-03-30T00:40:13.954Z,8.07
2023-03-30T00:41:16.785Z,7.72
2023-03-30T00:42:21.531Z,7.63
2023-03-30T00:43:25.970Z,8.10
2023-03-30T00:45:06.039Z,8.95
2023-03-30T00:46:08.566Z,8.07
2023-03-30T00:47:11.449Z,8.65
2023-03-30T00:48:23.006Z,8.95
2023-03-30T00:49:26.062Z,8.05
2023-03-30T00:50:43.926Z,9.32
2023-03-30T00:51:50.847Z,8.55
2023-03-30T00:52:56.453Z,8.27
2023-03-30T00:54:07.746Z,8.63
2023-03-30T00:55:10.811Z,8.85
2023-03-30T00:56:15.581Z,8.68
2023-03-30T00:57:20.340Z,8.15
2023-03-30T00:58:24.765Z,8.50
2023-03-30T00:59:27.523Z,8.27
2023-03-30T01:00:30.011Z,8.75
2023-03-30T01:01:38.630Z,7.40
2023-03-30T01:02:46.886Z,8.05
2023-03-30T01:03:50.755Z,8.52
2023-03-30T01:04:57.552Z,8.63
2023-03-30T01:06:02.396Z,8.63
2023-03-30T01:07:05.502Z,7.80
2023-03-30T01:08:09.263Z,7.97
2023-03-30T01:09:12.901Z,9.38
2023-03-30T01:10:15.417Z,9.40
2023-03-30T01:11:18.018Z,8.70
2023-03-30T01:12:21.135Z,9.50
2023-03-30T01:13:23.915Z,9.05
2023-03-30T01:14:26.594Z,9.05
2023-03-30T01:15:33.638Z,9.02
2023-03-30T01:16:39.678Z,9.05
2023-03-30T01:17:44.170Z,9.40
2023-03-30T01:19:11.602Z,8.32
2023-03-30T01:20:34.890Z,8.50
2023-03-30T01:22:04.703Z,7.95
2023-03-30T01:23:37.696Z,8.82
2023-03-30T01:25:18.423Z,7.22
2023-03-30T01:26:43.287Z,8.48
2023-03-30T01:27:57.972Z,8.30
2023-03-30T01:29:34.431Z,8.82
2023-03-30T01:30:37.599Z,7.70
2023-03-30T01:32:17.068Z,8.10
2023-03-30T01:33:56.831Z,8.40
2023-03-30T01:35:23.892Z,8.05
2023-03-30T01:36:58.069Z,8.35
2023-03-30T01:38:28.818Z,8.73
2023-03-30T01:39:44.706Z,8.98
2023-03-30T01:40:48.910Z,8.80
2023-03-30T01:42:29.804Z,9.30
2023-03-30T01:43:51.918Z,9.23
2023-03-30T01:45:09.969Z,8.55
2023-03-30T01:46:33.443Z,9.27
2023-03-30T01:48:07.134Z,8.40
2023-03-30T01:49:31.993Z,8.48
2023-03-30T01:50:39.507Z,8.32
2023-03-30T01:52:01.898Z,9.45
2023-03-30T01:53:16.194Z,9.07
2023-03-30T01:54:31.890Z,10.30
2023-03-30T01:55:56.132Z,8.88
2023-03-30T01:57:32.992Z,8.07
2023-03-30T01:58:49.023Z,8.52
2023-03-30T01:59:57.704Z,8.35
2023-03-30T02:01:01.990Z,8.05
2023-03-30T02:02:07.334Z,8.63
2023-03-30T02:03:31.781Z,9.10
2023-03-30T02:04:39.419Z,8.75
2023-03-30T02:05:43.024Z,8.68
2023-03-30T02:06:56.358Z,8.57
2023-03-30T02:08:08.490Z,8.98
2023-03-30T02:09:15.747Z,8.90
2023-03-30T02:10:20.022Z,8.18
2023-03-30T02:11:24.733Z,8.73
2023-03-30T02:12:30.248Z,7.90
2023-03-30T02:13:33.340Z,8.18
2023-03-30T02:14:37.604Z,9.13
2023-03-30T02:15:46.283Z,8.45
2023-03-30T02:16:56.308Z,8.40
2023-03-30T02:17:58.806Z,8.60
2023-03-30T02:19:01.870Z,7.68
2023-03-30T02:20:09.192Z,8.20
2023-03-30T02:21:12.424Z,9.32
2023-03-30T02:22:19.443Z,9.48
2023-03-30T02:23:23.776Z,8.52
2023-03-30T02:24:28.315Z,9.00
2023-03-30T02:25:30.824Z,8.65
2023-03-30T02:26:34.075Z,8.57
2023-03-30T02:27:38.074Z,7.65
2023-03-30T02:28:41.606Z,8.38
2023-03-30T02:29:45.511Z,7.38
2023-03-30T02:30:48.179Z,8.90
2023-03-30T02:31:54.766Z,8.05
2023-03-30T02:32:57.764Z,8.95
2023-03-30T02:34:10.659Z,8.15
2023-03-30T02:35:51.495Z,7.72
2023-03-30T02:37:20.715Z,8.13
2023-03-30T02:39:00.200Z,7.80
2023-03-30T02:40:21.723Z,8.05
2023-03-30T02:41:54.794Z,7.65
2023-03-30T02:43:06.631Z,8.85
2023-03-30T02:44:30.663Z,7.97
2023-03-30T02:45:52.504Z,7.80
2023-03-30T02:46:57.900Z,7.88
2023-03-30T02:48:21.041Z,8.07
2023-03-30T02:49:47.410Z,8.75
2023-03-30T02:51:01.388Z,8.73
2023-03-30T02:52:59.035Z,7.55
2023-03-30T02:54:14.565Z,8.40
2023-03-30T02:55:42.143Z,8.07
2023-03-30T02:57:07.876Z,8.30
2023-03-30T02:58:29.134Z,7.95
2023-03-30T03:00:02.319Z,7.40
2023-03-30T03:01:36.525Z,7.60
2023-03-30T03:02:54.231Z,7.95
2023-03-30T03:04:03.381Z,8.50
2023-03-30T03:05:14.856Z,7.47
2023-03-30T03:06:40.631Z,8.63
2023-03-30T03:07:45.129Z,8.10
2023-03-30T03:08:48.250Z,9.02
2023-03-30T03:09:57.131Z,8.50
2023-03-30T03:11:00.034Z,8.75
2023-03-30T03:12:06.147Z,8.23
2023-03-30T03:13:15.168Z,7.53
2023-03-30T03:14:20.848Z,7.35
2023-03-30T03:15:23.647Z,8.07
2023-03-30T03:16:46.902Z,7.68
2023-03-30T03:17:53.169Z,7.55
2023-03-30T03:18:56.094Z,7.15
2023-03-30T03:19:59.630Z,8.57
2023-03-30T03:21:02.370Z,7.68
2023-03-30T03:22:05.373Z,8.27
2023-03-30T03:23:11.160Z,8.38
2023-03-30T03:24:20.792Z,8.63
2023-03-30T03:25:49.219Z,7.53
2023-03-30T03:26:53.947Z,8.52
2023-03-30T03:27:58.406Z,8.73
2023-03-30T03:29:03.837Z,9.30
2023-03-30T03:30:06.987Z,7.80
2023-03-30T03:31:16.854Z,8.93
2023-03-30T03:32:20.649Z,8.70
2023-03-30T03:33:25.168Z,8.18
2023-03-30T03:34:34.896Z,8.23
2023-03-30T03:35:39.691Z,8.10
2023-03-30T03:36:44.105Z,8.02
2023-03-30T03:37:46.688Z,7.53
2023-03-30T03:38:49.428Z,7.93
2023-03-30T03:39:52.450Z,7.70
2023-03-30T03:40:57.585Z,8.48
2023-03-30T03:42:00.444Z,8.27
2023-03-30T03:43:03.424Z,8.10
2023-03-30T03:44:06.280Z,8.65
2023-03-30T03:45:09.523Z,8.02
2023-03-30T03:46:18.254Z,7.70
2023-03-30T03:47:23.128Z,7.93
2023-03-30T03:48:25.845Z,9.00
2023-03-30T03:49:28.435Z,8.88
2023-03-30T03:50:31.223Z,9.20
2023-03-30T03:51:33.883Z,7.72
2023-03-30T03:52:37.213Z,8.50
2023-03-30T03:53:39.811Z,7.50
2023-03-30T03:54:46.199Z,8.38
2023-03-30T03:55:48.824Z,8.40
2023-03-30T03:56:52.143Z,7.80
2023-03-30T03:57:54.678Z,8.43
2023-03-30T03:58:57.433Z,8.68
2023-03-30T04:00:00.050Z,8.63
2023-03-30T04:01:03.930Z,8.80
2023-03-30T04:02:07.175Z,7.25
2023-03-30T04:03:10.352Z,8.02
2023-03-30T04:04:13.645Z,7.90
2023-03-30T04:05:16.429Z,8.32
2023-03-30T04:06:18.940Z,8.02
2023-03-30T04:07:21.650Z,7.80
2023-03-30T04:08:25.783Z,8.35
2023-03-30T04:09:29.565Z,9.20
2023-03-30T04:10:39.157Z,8.93
2023-03-30T04:11:53.456Z,8.52
2023-03-30T04:13:11.855Z,9.05
2023-03-30T04:14:34.792Z,8.88
2023-03-30T04:16:12.731Z,8.07
2023-03-30T04:17:24.500Z,9.00
2023-03-30T04:18:47.549Z,8.73
2023-03-30T04:20:23.573Z,10.68
2023-03-30T04:21:47.313Z,10.30
2023-03-30T04:23:10.022Z,11.05
2023-03-30T04:24:35.649Z,10.27
2023-03-30T04:25:58.008Z,10.02
2023-03-30T04:27:19.518Z,11.32
2023-03-30T04:28:46.892Z,11.40
2023-03-30T04:30:15.606Z,8.90
2023-03-30T04:31:38.322Z,9.43
2023-03-30T04:33:03.949Z,9.02
2023-03-30T04:34:38.810Z,8.95
2023-03-30T04:36:01.960Z,8.00
2023-03-30T04:37:18.429Z,7.85
2023-03-30T04:38:42.902Z,7.97
2023-03-30T04:40:00.701Z,9.05
2023-03-30T04:41:33.374Z,8.75
2023-03-30T04:43:03.925Z,7.13
2023-03-30T04:44:27.008Z,8.05
2023-03-30T04:45:51.567Z,7.95
2023-03-30T04:47:12.285Z,7.38
2023-03-30T04:48:30.774Z,8.65
2023-03-30T04:49:56.826Z,8.52
2023-03-30T04:51:22.251Z,8.95
2023-03-30T04:53:00.125Z,7.65
2023-03-30T04:54:21.181Z,7.82
2023-03-30T04:55:42.809Z,7.68
2023-03-30T04:57:16.421Z,8.65
2023-03-30T04:58:48.158Z,7.45
2023-03-30T05:00:29.120Z,6.05
2023-03-30T05:01:50.684Z,8.48
2023-03-30T05:03:23.602Z,7.65
2023-03-30T05:04:46.648Z,8.52
2023-03-30T05:05:51.742Z,8.40
2023-03-30T05:07:16.214Z,7.32
2023-03-30T05:08:25.569Z,8.13
2023-03-30T05:09:46.858Z,7.35
2023-03-30T05:11:16.244Z,7.10
2023-03-30T05:14:04.544Z,7.43
2023-03-30T05:15:23.565Z,7.70
2023-03-30T05:16:46.248Z,7.53
2023-03-30T05:17:54.758Z,8.48
2023-03-30T05:19:13.021Z,8.23
2023-03-30T05:20:25.167Z,7.55
2023-03-30T05:21:53.809Z,9.00
2023-03-30T05:24:40.127Z,7.78
2023-03-30T05:26:14.904Z,7.97
2023-03-30T05:27:36.440Z,7.63
2023-03-30T05:28:54.396Z,8.95
2023-03-30T05:30:12.735Z,8.68
2023-03-30T05:31:35.239Z,9.05
2023-03-30T05:32:40.502Z,9.02
2023-03-30T05:34:11.418Z,9.07
2023-03-30T05:35:25.550Z,7.85
2023-03-30T05:36:43.028Z,8.90
2023-03-30T05:38:04.354Z,8.18
2023-03-30T05:39:41.785Z,8.77
2023-03-30T05:41:12.692Z,8.75
2023-03-30T05:42:33.737Z,8.00
2023-03-30T05:43:56.614Z,7.85
2023-03-30T05:45:34.125Z,8.35
2023-03-30T05:46:56.888Z,8.48
2023-03-30T05:48:29.642Z,9.55
2023-03-30T05:49:52.323Z,9.32
2023-03-30T05:51:07.158Z,8.77
2023-03-30T05:52:19.948Z,8.40
2023-03-30T05:53:37.656Z,8.13
2023-03-30T05:55:00.668Z,8.98
2023-03-30T05:56:25.233Z,7.65
2023-03-30T05:57:46.883Z,7.85
2023-03-30T05:58:55.272Z,8.80
2023-03-30T06:00:21.333Z,7.88
2023-03-30T06:01:38.488Z,8.93
2023-03-30T06:02:41.260Z,7.68
2023-03-30T06:03:48.951Z,7.32
2023-03-30T06:04:52.293Z,7.70
2023-03-30T06:05:54.898Z,7.90
2023-03-30T06:06:57.335Z,7.90
2023-03-30T06:08:00.798Z,8.68
2023-03-30T06:09:04.717Z,6.90
2023-03-30T06:10:10.481Z,7.78
2023-03-30T06:11:14.182Z,8.23
2023-03-30T06:13:26.475Z,7.97
2023-03-30T06:14:29.278Z,7.72
2023-03-30T06:16:00.243Z,7.72
2023-03-30T06:17:05.075Z,7.53
2023-03-30T06:18:08.713Z,8.00
2023-03-30T06:19:15.137Z,7.97
2023-03-30T06:20:18.032Z,7.68
2023-03-30T06:21:21.724Z,8.73
2023-03-30T06:22:35.650Z,8.43
2023-03-30T06:23:46.571Z,7.15
2023-03-30T06:24:54.038Z,8.98
2023-03-30T06:25:57.733Z,9.15
2023-03-30T06:27:05.037Z,8.27
2023-03-30T06:28:07.912Z,7.00
2023-03-30T06:29:11.113Z,9.25
2023-03-30T06:30:16.974Z,8.10
2023-03-30T06:31:23.455Z,8.73
2023-03-30T06:32:33.851Z,7.05
2023-03-30T06:33:38.325Z,8.20
2023-03-30T06:34:44.899Z,8.20
2023-03-30T06:35:50.750Z,7.38
2023-03-30T06:36:56.240Z,7.85
2023-03-30T06:37:59.980Z,7.82
2023-03-30T06:39:06.493Z,7.63
2023-03-30T06:40:13.558Z,8.25
2023-03-30T06:41:17.919Z,7.53
2023-03-30T06:42:23.706Z,7.95
2023-03-30T06:43:36.854Z,8.00
2023-03-30T06:44:54.944Z,8.40
2023-03-30T06:45:57.422Z,7.93
2023-03-30T06:47:02.393Z,7.70
2023-03-30T06:48:07.217Z,7.80
2023-03-30T06:49:13.263Z,7.93
2023-03-30T06:50:18.291Z,8.73
2023-03-30T06:51:26.748Z,8.63
2023-03-30T06:52:35.962Z,7.85
2023-03-30T06:53:39.204Z,8.65
2023-03-30T06:54:41.731Z,8.48
2023-03-30T06:55:45.063Z,7.63
2023-03-30T06:56:54.154Z,7.88
2023-03-30T06:57:56.714Z,7.78
2023-03-30T06:59:00.314Z,8.73
2023-03-30T07:00:07.255Z,7.78
2023-03-30T07:01:16.773Z,7.90
2023-03-30T07:02:45.455Z,8.27
2023-03-30T07:03:53.597Z,8.95
2023-03-30T07:05:24.977Z,8.57
2023-03-30T07:06:47.092Z,8.93
2023-03-30T07:07:50.207Z,7.88
2023-03-30T07:08:53.869Z,8.57
2023-03-30T07:10:01.235Z,8.90
2023-03-30T07:11:05.829Z,7.95
2023-03-30T07:12:10.854Z,8.20
2023-03-30T07:13:13.496Z,8.63
2023-03-30T07:14:17.498Z,9.30
2023-03-30T07:15:21.916Z,8.05
2023-03-30T07:16:25.809Z,8.32
2023-03-30T07:17:29.405Z,7.65
2023-03-30T07:18:32.051Z,7.53
2023-03-30T07:19:34.520Z,7.70
2023-03-30T07:20:36.997Z,7.57
2023-03-30T07:21:48.141Z,8.80
2023-03-30T07:22:53.645Z,7.95
2023-03-30T07:23:57.005Z,7.90
2023-03-30T07:25:08.993Z,8.52
2023-03-30T07:26:12.298Z,8.45
2023-03-30T07:27:25.403Z,7.93
2023-03-30T07:28:31.607Z,8.15
2023-03-30T07:29:35.238Z,8.95
2023-03-30T07:30:39.077Z,8.07
2023-03-30T07:31:43.417Z,8.95
2023-03-30T07:32:49.160Z,8.00
2023-03-30T07:33:52.623Z,8.45
2023-03-30T07:34:59.489Z,9.48
2023-03-30T07:36:03.282Z,8.50
2023-03-30T07:37:07.872Z,9.20
2023-03-30T07:38:10.569Z,8.40
2023-03-30T07:39:17.973Z,9.15
2023-03-30T07:40:22.176Z,7.85
2023-03-30T07:41:24.843Z,7.72
2023-03-30T07:42:32.262Z,8.65
2023-03-30T07:43:35.121Z,8.82
2023-03-30T07:44:37.836Z,7.95
2023-03-30T07:45:43.187Z,8.10
2023-03-30T07:46:49.909Z,7.82
2023-03-30T07:48:01.063Z,7.97
2023-03-30T07:49:03.579Z,7.93
2023-03-30T07:50:08.823Z,9.00
2023-03-30T07:51:13.840Z,8.60
2023-03-30T07:52:27.734Z,8.77
2023-03-30T07:53:36.706Z,9.05
2023-03-30T07:54:45.384Z,9.07
2023-03-30T07:55:53.246Z,9.32
2023-03-30T07:57:04.429Z,8.45
2023-03-30T07:58:07.883Z,8.05
2023-03-30T07:59:10.748Z,7.82
2023-03-30T08:00:14.757Z,8.38
2023-03-30T08:01:39.920Z,8.00
2023-03-30T08:02:52.557Z,8.60
2023-03-30T08:03:56.078Z,9.13
2023-03-30T08:05:00.166Z,9.25
2023-03-30T08:06:15.937Z,8.52
2023-03-30T08:07:20.566Z,8.23
2023-03-30T08:08:28.146Z,8.30
2023-03-30T08:09:30.965Z,8.98
2023-03-30T08:10:34.744Z,9.52
2023-03-30T08:11:37.965Z,8.52
2023-03-30T08:12:41.319Z,9.43
2023-03-30T08:13:44.761Z,8.75
2023-03-30T08:14:47.935Z,9.02
2023-03-30T08:15:50.953Z,7.80
2023-03-30T08:16:57.101Z,8.98
2023-03-30T08:18:04.317Z,8.35
2023-03-30T08:19:06.816Z,8.27
2023-03-30T08:20:11.649Z,8.38
2023-03-30T08:21:14.436Z,8.70
2023-03-30T08:22:17.028Z,7.78
2023-03-30T08:23:21.126Z,8.38
2023-03-30T08:24:25.565Z,8.50
2023-03-30T08:25:28.210Z,8.45
2023-03-30T08:26:31.126Z,8.82
2023-03-30T08:27:33.876Z,8.65
2023-03-30T08:28:36.790Z,8.05
2023-03-30T08:29:39.537Z,8.27
2023-03-30T08:30:42.083Z,8.77
2023-03-30T08:31:45.734Z,8.73
2023-03-30T08:32:48.521Z,8.80
2023-03-30T08:33:51.201Z,7.72
2023-03-30T08:34:55.187Z,8.80
2023-03-30T08:35:57.834Z,8.25
2023-03-30T08:37:00.478Z,8.68
2023-03-30T08:38:03.218Z,8.70
2023-03-30T08:39:05.813Z,7.88
2023-03-30T08:40:11.129Z,8.57
2023-03-30T08:41:39.665Z,8.05
2023-03-30T08:43:02.969Z,9.10
2023-03-30T08:44:31.318Z,8.85
2023-03-30T08:45:41.871Z,9.52
2023-03-30T08:46:45.868Z,8.55
2023-03-30T08:47:50.408Z,9.10
2023-03-30T08:48:53.933Z,8.10
2023-03-30T08:50:00.216Z,9.07
2023-03-30T08:51:08.795Z,8.70
2023-03-30T08:52:20.854Z,8.07
2023-03-30T08:53:23.570Z,8.93
2023-03-30T08:54:27.288Z,8.25
2023-03-30T08:55:39.160Z,8.90
2023-03-30T08:56:47.820Z,9.13
2023-03-30T08:57:59.970Z,8.25
2023-03-30T08:59:20.526Z,9.63
2023-03-30T09:00:24.678Z,8.43
2023-03-30T09:01:52.159Z,7.82
2023-03-30T09:03:02.503Z,8.38
2023-03-30T09:04:19.425Z,7.50
2023-03-30T09:05:32.831Z,7.72
2023-03-30T09:06:56.754Z,8.57
2023-03-30T09:08:20.130Z,8.63
2023-03-30T09:09:25.388Z,8.57
2023-03-30T09:10:31.020Z,8.05
2023-03-30T09:11:38.171Z,8.60
2023-03-30T09:12:49.417Z,8.52
2023-03-30T09:13:52.026Z,8.20
2023-03-30T09:14:59.854Z,8.48
2023-03-30T09:16:34.500Z,7.65
2023-03-30T09:17:45.575Z,8.27
2023-03-30T09:18:52.882Z,8.18
2023-03-30T09:20:23.114Z,8.02
2023-03-30T09:21:29.721Z,7.90
2023-03-30T09:22:38.301Z,8.82
2023-03-30T09:23:41.356Z,8.30
2023-03-30T09:24:43.956Z,8.52
2023-03-30T09:26:04.433Z,9.93
2023-03-30T09:27:25.336Z,7.88
2023-03-30T09:29:04.099Z,8.13
2023-03-30T09:30:18.286Z,9.25
2023-03-30T09:31:41.522Z,8.73
2023-03-30T09:32:49.878Z,8.00
2023-03-30T09:34:07.885Z,8.30
2023-03-30T09:35:24.876Z,8.25
2023-03-30T09:37:24.868Z,7.97
2023-03-30T09:38:27.391Z,8.15
2023-03-30T09:39:33.359Z,9.52
2023-03-30T09:41:25.001Z,8.57
2023-03-30T09:43:46.142Z,7.90
2023-03-30T09:45:02.198Z,8.23
2023-03-30T09:46:08.384Z,7.43
2023-03-30T09:47:26.636Z,8.50
2023-03-30T09:48:29.330Z,8.18
2023-03-30T09:49:38.677Z,7.88
2023-03-30T09:50:45.756Z,7.72
2023-03-30T09:52:03.645Z,7.32
2023-03-30T09:53:17.395Z,7.13
2023-03-30T09:54:21.584Z,7.80
2023-03-30T09:55:28.944Z,7.80
2023-03-30T09:56:46.825Z,8.18
2023-03-30T09:57:53.389Z,7.88
2023-03-30T09:58:56.391Z,7.90
2023-03-30T10:00:00.887Z,7.72
2023-03-30T10:01:08.410Z,7.85
2023-03-30T10:02:19.256Z,8.88
2023-03-30T10:03:24.274Z,8.05
2023-03-30T10:04:26.980Z,7.78
2023-03-30T10:05:31.488Z,8.27
2023-03-30T10:06:54.371Z,8.27
2023-03-30T10:07:59.495Z,7.95
2023-03-30T10:09:06.294Z,8.27
2023-03-30T10:10:31.788Z,7.72
2023-03-30T10:11:42.216Z,7.78
2023-03-30T10:12:45.433Z,8.35
2023-03-30T10:13:50.189Z,7.90
2023-03-30T10:15:06.585Z,7.88
2023-03-30T10:16:27.564Z,8.23
2023-03-30T10:17:31.163Z,8.07
2023-03-30T10:18:45.115Z,7.78
2023-03-30T10:19:51.747Z,8.68
2023-03-30T10:21:15.394Z,7.88
2023-03-30T10:22:21.092Z,8.75
2023-03-30T10:23:33.370Z,9.02
2023-03-30T10:24:36.851Z,8.80
2023-03-30T10:25:41.560Z,8.15
2023-03-30T10:26:47.247Z,8.88
2023-03-30T10:27:53.676Z,8.45
2023-03-30T10:29:02.196Z,8.52
2023-03-30T10:30:12.602Z,7.50
2023-03-30T10:31:16.519Z,8.77
2023-03-30T10:32:21.616Z,8.43
2023-03-30T10:33:24.354Z,9.07
2023-03-30T10:34:54.530Z,8.63
2023-03-30T10:36:03.790Z,7.93
2023-03-30T10:37:19.801Z,8.45
2023-03-30T10:38:23.135Z,7.60
2023-03-30T10:39:33.347Z,8.88
2023-03-30T10:40:38.553Z,8.20
2023-03-30T10:41:42.081Z,8.45
2023-03-30T10:42:46.488Z,9.38
2023-03-30T10:43:50.160Z,8.90
2023-03-30T10:45:00.248Z,8.15
2023-03-30T10:46:20.020Z,8.80
2023-03-30T10:47:59.915Z,7.65
2023-03-30T10:49:02.900Z,7.85
2023-03-30T10:50:11.112Z,8.05
2023-03-30T10:51:35.827Z,8.07
2023-03-30T10:53:02.549Z,7.82
2023-03-30T10:54:38.099Z,8.38
2023-03-30T10:55:47.902Z,7.85
2023-03-30T10:56:53.398Z,6.77
2023-03-30T10:58:20.439Z,7.22
2023-03-30T10:59:53.254Z,7.00
2023-03-30T11:01:09.979Z,7.13
2023-03-30T11:02:43.971Z,6.32
2023-03-30T11:03:52.473Z,6.43
2023-03-30T11:05:09.681Z,6.03
2023-03-30T11:06:32.188Z,5.93
2023-03-30T11:07:44.607Z,6.43
2023-03-30T11:08:49.144Z,6.70
2023-03-30T11:09:54.783Z,7.35
2023-03-30T11:10:59.514Z,6.70
2023-03-30T11:12:06.072Z,6.75
2023-03-30T11:13:13.991Z,6.53
2023-03-30T11:14:28.268Z,6.55
2023-03-30T11:15:36.098Z,6.78
2023-03-30T11:16:47.808Z,7.20
2023-03-30T11:18:05.258Z,6.25
2023-03-30T11:19:25.117Z,6.78
2023-03-30T11:20:38.516Z,7.70
2023-03-30T11:21:47.151Z,6.45
2023-03-30T11:23:01.107Z,6.35
2023-03-30T11:24:20.745Z,6.43
2023-03-30T11:26:01.785Z,6.00
2023-03-30T11:28:37.261Z,6.57
2023-03-30T11:29:57.308Z,7.00
2023-03-30T11:31:05.292Z,6.72
2023-03-30T11:32:29.519Z,6.10
2023-03-30T11:33:46.852Z,6.13
2023-03-30T11:34:53.742Z,6.20
2023-03-30T11:36:02.246Z,6.57
2023-03-30T11:37:45.288Z,6.15
2023-03-30T11:38:55.813Z,5.97
2023-03-30T11:40:21.653Z,5.97
2023-03-30T11:41:32.458Z,5.53
2023-03-30T11:42:36.137Z,5.80
2023-03-30T11:43:38.654Z,6.00
2023-03-30T11:44:42.300Z,6.60
2023-03-30T11:46:06.283Z,6.38
2023-03-30T11:47:27.704Z,6.30
2023-03-30T11:48:54.501Z,6.63
2023-03-30T11:50:21.333Z,5.82
2023-03-30T11:51:29.476Z,5.78
2023-03-30T11:52:38.810Z,6.18
2023-03-30T11:54:02.521Z,6.53
2023-03-30T11:55:20.351Z,6.38
2023-03-30T11:56:25.113Z,6.55
2023-03-30T11:57:46.438Z,5.57
2023-03-30T11:59:17.073Z,6.55
2023-03-30T12:00:32.547Z,6.07
2023-03-30T12:02:11.507Z,6.82
2023-03-30T12:03:43.320Z,5.97
2023-03-30T12:04:53.265Z,6.20
2023-03-30T12:06:31.233Z,6.72
2023-03-30T12:08:07.481Z,5.82
2023-03-30T12:09:25.669Z,5.53
2023-03-30T12:10:40.712Z,5.78
2023-03-30T12:12:17.947Z,5.47
2023-03-30T12:13:21.552Z,5.63
2023-03-30T12:14:43.081Z,5.80
2023-03-30T12:15:49.075Z,6.13
2023-03-30T12:16:55.354Z,6.50
2023-03-30T12:18:35.724Z,5.55
2023-03-30T12:19:56.512Z,5.57
2023-03-30T12:21:14.938Z,5.43
2023-03-30T12:22:55.149Z,5.90
2023-03-30T12:24:18.528Z,5.63
2023-03-30T12:25:39.558Z,5.40
2023-03-30T12:26:46.878Z,5.40
2023-03-30T12:28:11.222Z,5.82
2023-03-30T12:30:32.351Z,5.80
2023-03-30T12:31:59.306Z,5.43
2023-03-30T12:33:12.220Z,5.80
2023-03-30T12:34:15.125Z,5.07
2023-03-30T12:35:55.084Z,5.20
2023-03-30T12:37:28.479Z,5.40
2023-03-30T12:38:41.783Z,5.80
2023-03-30T12:39:49.304Z,5.72
2023-03-30T12:41:04.212Z,5.22
2023-03-30T12:42:10.212Z,5.47
2023-03-30T12:43:27.356Z,5.45
2023-03-30T12:44:44.970Z,5.90
2023-03-30T12:46:20.311Z,6.28
2023-03-30T12:47:35.794Z,5.75
2023-03-30T12:48:57.249Z,5.68
2023-03-30T12:50:04.580Z,4.93
2023-03-30T12:51:39.124Z,5.22
2023-03-30T12:53:04.162Z,5.43
2023-03-30T12:54:23.483Z,5.22
2023-03-30T12:55:53.624Z,4.78
2023-03-30T12:57:11.149Z,5.65
2023-03-30T12:58:38.258Z,6.05
2023-03-30T13:00:07.782Z,6.55
2023-03-30T13:01:21.792Z,6.60
2023-03-30T13:02:39.186Z,6.30
2023-03-30T13:04:07.884Z,7.72
2023-03-30T13:05:35.473Z,7.00
2023-03-30T13:06:41.316Z,6.15
2023-03-30T13:07:44.162Z,6.50
2023-03-30T13:08:47.070Z,6.68
2023-03-30T13:10:04.968Z,7.47
2023-03-30T13:11:18.629Z,6.70
2023-03-30T13:12:41.634Z,6.10
2023-03-30T13:13:59.079Z,6.40
2023-03-30T13:15:22.319Z,6.72
2023-03-30T13:16:47.957Z,7.30
2023-03-30T13:17:56.997Z,5.88
2023-03-30T13:19:14.056Z,6.82
2023-03-30T13:20:30.142Z,7.03
2023-03-30T13:21:47.845Z,7.00
2023-03-30T13:23:13.430Z,6.25
2023-03-30T13:24:26.565Z,6.10
2023-03-30T13:25:37.749Z,6.60
2023-03-30T13:26:43.991Z,7.90
2023-03-30T13:27:46.601Z,7.68
2023-03-30T13:28:56.768Z,7.40
2023-03-30T13:30:03.999Z,6.32
2023-03-30T13:31:36.450Z,6.72
2023-03-30T13:32:45.027Z,7.10
2023-03-30T13:33:52.553Z,6.95
2023-03-30T13:35:07.465Z,6.68
2023-03-30T13:36:15.622Z,6.40
2023-03-30T13:37:21.291Z,6.78
2023-03-30T13:38:47.634Z,6.45
2023-03-30T13:40:08.458Z,6.88
2023-03-30T13:41:31.553Z,6.65
2023-03-30T13:42:36.950Z,6.75
2023-03-30T13:43:49.552Z,7.22
2023-03-30T13:45:23.729Z,6.10
2023-03-30T13:47:02.519Z,5.80
2023-03-30T13:48:04.973Z,6.10
2023-03-30T13:49:19.563Z,6.68
2023-03-30T13:50:29.220Z,6.90
2023-03-30T13:51:32.357Z,5.55
2023-03-30T13:52:38.754Z,6.25
2023-03-30T13:54:02.493Z,6.28
2023-03-30T13:55:10.408Z,6.72
2023-03-30T13:56:14.354Z,7.15
2023-03-30T13:57:21.372Z,6.75
2023-03-30T13:58:28.962Z,6.22
2023-03-30T13:59:33.357Z,5.55
2023-03-30T14:00:54.986Z,6.60
2023-03-30T14:01:59.915Z,5.57
2023-03-30T14:03:30.678Z,6.38
2023-03-30T14:04:37.182Z,6.15
2023-03-30T14:05:42.270Z,6.30
2023-03-30T14:06:49.405Z,6.00
2023-03-30T14:07:57.276Z,5.90
2023-03-30T14:09:11.438Z,6.20
2023-03-30T14:10:19.931Z,5.43
2023-03-30T14:11:28.909Z,5.80
2023-03-30T14:12:32.853Z,5.25
2023-03-30T14:13:39.439Z,6.18
2023-03-30T14:14:47.094Z,6.40
2023-03-30T14:15:51.408Z,5.70
2023-03-30T14:16:54.516Z,4.85
2023-03-30T14:17:59.756Z,5.18
2023-03-30T14:19:12.889Z,5.50
2023-03-30T14:20:40.109Z,5.13
2023-03-30T14:21:44.416Z,5.20
2023-03-30T14:22:48.594Z,5.63
2023-03-30T14:23:53.283Z,4.20
2023-03-30T14:25:02.793Z,3.58
2023-03-30T14:26:17.167Z,3.42
2023-03-30T14:27:19.611Z,3.33
2023-03-30T14:28:22.577Z,2.75
2023-03-30T14:29:31.308Z,2.80
2023-03-30T14:30:34.982Z,3.08
2023-03-30T14:31:42.358Z,2.83
2023-03-30T14:32:45.074Z,3.47
2023-03-30T14:33:48.062Z,3.17
2023-03-30T14:34:52.558Z,3.20
2023-03-30T14:35:57.402Z,3.22
2023-03-30T14:37:01.737Z,2.83
2023-03-30T14:38:15.946Z,3.20
2023-03-30T14:39:23.246Z,3.42
2023-03-30T14:40:25.826Z,3.10
2023-03-30T14:41:28.699Z,2.88
2023-03-30T14:42:34.216Z,3.08
2023-03-30T14:43:40.546Z,2.78
2023-03-30T14:44:43.411Z,3.85
2023-03-30T14:45:46.605Z,3.10
2023-03-30T14:46:51.429Z,3.40
2023-03-30T14:47:56.462Z,2.80
2023-03-30T14:48:59.312Z,3.05
2023-03-30T14:50:05.126Z,3.88
2023-03-30T14:51:24.490Z,2.90
2023-03-30T14:52:39.039Z,2.60
2023-03-30T14:53:41.831Z,2.97
2023-03-30T14:54:57.667Z,2.95
2023-03-30T14:56:08.815Z,3.00
2023-03-30T14:57:12.017Z,3.30
2023-03-30T14:58:16.172Z,2.55
2023-03-30T14:59:19.360Z,3.10
2023-03-30T15:00:24.982Z,3.13
2023-03-30T15:01:33.373Z,3.80
2023-03-30T15:02:37.767Z,3.58
2023-03-30T15:03:41.983Z,3.15
2023-03-30T15:04:44.609Z,3.05
2023-03-30T15:05:47.186Z,3.10
2023-03-30T15:06:50.103Z,3.47
2023-03-30T15:07:53.167Z,3.08
2023-03-30T15:09:01.224Z,3.85
2023-03-30T15:10:04.697Z,3.30
2023-03-30T15:11:10.509Z,3.45
2023-03-30T15:12:26.199Z,3.60
2023-03-30T15:13:35.850Z,3.30
2023-03-30T15:14:39.852Z,3.90
2023-03-30T15:15:42.395Z,5.15
2023-03-30T15:16:48.120Z,4.47
2023-03-30T15:17:51.128Z,4.85
2023-03-30T15:18:58.802Z,4.72
2023-03-30T15:20:06.316Z,5.03
2023-03-30T15:21:10.723Z,4.75
2023-03-30T15:22:28.822Z,6.53
2023-03-30T15:23:38.948Z,5.32
2023-03-30T15:24:42.253Z,4.65
2023-03-30T15:25:44.954Z,5.50
2023-03-30T15:26:49.007Z,5.78
2023-03-30T15:27:56.409Z,5.35
2023-03-30T15:28:59.348Z,5.22
2023-03-30T15:30:02.512Z,4.68
2023-03-30T15:31:05.612Z,4.93
2023-03-30T15:32:28.634Z,4.72
2023-03-30T15:33:45.095Z,4.07
2023-03-30T15:35:16.581Z,4.50
2023-03-30T15:36:24.525Z,3.53
2023-03-30T15:37:27.855Z,4.00
2023-03-30T15:38:34.250Z,4.30
2023-03-30T15:39:36.922Z,3.92
2023-03-30T15:40:41.916Z,3.70
2023-03-30T15:41:49.833Z,3.60
2023-03-30T15:43:20.358Z,4.13
2023-03-30T15:44:23.180Z,4.32
2023-03-30T15:45:25.692Z,3.95
2023-03-30T15:46:28.377Z,3.28
2023-03-30T15:47:31.105Z,4.10
2023-03-30T15:48:51.606Z,4.30
2023-03-30T15:49:54.078Z,4.28
2023-03-30T15:51:03.721Z,4.18
2023-03-30T15:52:13.831Z,4.60
2023-03-30T15:53:22.562Z,4.63
2023-03-30T15:54:36.714Z,3.70
2023-03-30T15:55:40.788Z,4.97
2023-03-30T15:57:08.361Z,5.57
2023-03-30T15:58:13.385Z,9.30
2023-03-30T15:59:18.761Z,12.30
2023-03-30T16:00:23.917Z,10.88
2023-03-30T16:01:39.707Z,9.43
2023-03-30T16:02:48.466Z,7.88
2023-03-30T16:03:55.395Z,7.15
2023-03-30T16:05:01.506Z,6.03